createdAt,value
2018-01-07T00:00:02.177Z,60.77
2018-01-07T00:02:30.596Z,60.96
2018-01-07T00:04:58.935Z,61.28
2018-01-07T00:07:27.290Z,60.00
2018-01-07T00:09:56.052Z,61.92
2018-01-07T00:12:24.512Z,61.08
2018-01-07T00:14:52.847Z,60.79
2018-01-07T00:17:21.271Z,60.70
2018-01-07T00:19:49.613Z,60.59
2018-01-07T00:22:17.963Z,59.28
2018-01-07T00:24:46.308Z,59.25
2018-01-07T00:27:14.655Z,60.78
2018-01-07T00:29:43.012Z,59.82
2018-01-07T00:32:11.448Z,60.36
2018-01-07T00:34:39.811Z,58.31
2018-01-07T00:37:08.206Z,60.53
2018-01-07T00:39:36.571Z,58.26
2018-01-07T00:42:04.982Z,57.14
2018-01-07T00:44:33.395Z,60.83
2018-01-07T00:47:01.752Z,60.15
2018-01-07T00:49:30.125Z,58.99
2018-01-07T00:51:58.583Z,60.50
2018-01-07T00:54:26.951Z,60.18
2018-01-07T00:56:55.295Z,60.45
2018-01-07T00:59:23.664Z,59.58
2018-01-07T01:01:52.418Z,58.93
2018-01-07T01:04:20.763Z,61.43
2018-01-07T01:06:49.116Z,61.67
2018-01-07T01:09:17.508Z,61.16
2018-01-07T01:11:45.874Z,61.59
2018-01-07T01:14:14.226Z,60.44
2018-01-07T01:16:42.668Z,59.31
2018-01-07T01:19:11.051Z,58.95
2018-01-07T01:21:39.403Z,59.59
2018-01-07T01:24:07.743Z,60.06
2018-01-07T01:26:36.492Z,61.44
2018-01-07T01:29:04.835Z,61.26
2018-01-07T01:31:33.220Z,59.85
2018-01-07T01:34:01.872Z,59.78
2018-01-07T01:36:30.622Z,60.33
2018-01-07T01:38:58.992Z,61.22
2018-01-07T01:41:27.495Z,59.98
2018-01-07T01:43:55.855Z,59.93
2018-01-07T01:46:24.242Z,58.62
2018-01-07T01:48:52.579Z,59.32
2018-01-07T01:51:20.927Z,59.46
2018-01-07T01:53:49.383Z,58.22
2018-01-07T01:56:17.736Z,58.39
2018-01-07T01:58:46.071Z,58.46
2018-01-07T02:01:14.942Z,58.08
2018-01-07T02:03:43.299Z,60.18
2018-01-07T02:06:11.655Z,60.96
2018-01-07T02:08:40.004Z,59.51
2018-01-07T02:11:08.751Z,61.54
2018-01-07T02:13:37.090Z,61.31
2018-01-07T02:16:05.460Z,60.86
2018-01-07T02:18:33.894Z,60.87
2018-01-07T02:21:02.255Z,61.46
2018-01-07T02:23:30.595Z,61.48
2018-01-07T02:25:58.940Z,60.56
2018-01-07T02:28:27.691Z,60.94
2018-01-07T02:30:56.054Z,60.41
2018-01-07T02:33:24.462Z,60.66
2018-01-07T02:35:53.002Z,61.67
2018-01-07T02:38:21.433Z,60.16
2018-01-07T02:40:49.794Z,58.52
2018-01-07T02:43:18.151Z,58.49
2018-01-07T02:45:46.532Z,60.52
2018-01-07T02:48:14.870Z,59.86
2018-01-07T02:50:43.312Z,60.36
2018-01-07T02:53:11.696Z,59.96
2018-01-07T02:55:40.053Z,61.60
2018-01-07T02:58:08.425Z,60.66
2018-01-07T03:00:36.796Z,59.85
2018-01-07T03:03:05.239Z,58.93
2018-01-07T03:05:33.689Z,58.51
2018-01-07T03:08:02.025Z,57.55
2018-01-07T03:10:30.963Z,55.63
2018-01-07T03:12:59.316Z,56.18
2018-01-07T03:15:27.683Z,57.87
2018-01-07T03:17:56.054Z,56.41
2018-01-07T03:20:24.405Z,56.88
2018-01-07T03:22:52.851Z,58.04
2018-01-07T03:25:21.220Z,57.36
2018-01-07T03:27:49.602Z,57.93
2018-01-07T03:30:17.968Z,58.39
2018-01-07T03:32:46.316Z,57.21
2018-01-07T03:35:15.157Z,55.71
2018-01-07T03:37:43.616Z,57.48
2018-01-07T03:40:11.991Z,58.10
2018-01-07T03:42:40.346Z,57.29
2018-01-07T03:45:08.688Z,58.94
2018-01-07T03:47:37.060Z,58.34
2018-01-07T03:50:05.452Z,61.16
2018-01-07T03:52:33.791Z,59.20
2018-01-07T03:55:02.162Z,59.66
2018-01-07T03:57:30.569Z,59.73
2018-01-07T03:59:58.904Z,58.08
2018-01-07T04:02:29.087Z,60.15
2018-01-07T04:04:57.440Z,60.54
2018-01-07T04:07:25.793Z,58.82
2018-01-07T04:09:54.139Z,57.26
2018-01-07T04:12:22.580Z,56.91
2018-01-07T04:14:50.924Z,56.36
2018-01-07T04:17:19.271Z,57.66
2018-01-07T04:19:47.715Z,56.86
2018-01-07T04:22:16.066Z,55.36
2018-01-07T04:24:44.407Z,57.38
2018-01-07T04:27:12.756Z,58.31
2018-01-07T04:29:41.095Z,59.05
2018-01-07T04:32:09.449Z,58.66
2018-01-07T04:34:38.206Z,58.56
2018-01-07T04:37:06.596Z,58.35
2018-01-07T04:39:34.936Z,58.22
2018-01-07T04:42:03.324Z,58.13
2018-01-07T04:44:31.668Z,57.39
2018-01-07T04:47:00.100Z,57.97
2018-01-07T04:49:28.447Z,56.81
2018-01-07T04:51:56.799Z,57.36
2018-01-07T04:54:25.541Z,58.63
2018-01-07T04:56:53.883Z,57.78
2018-01-07T04:59:22.227Z,56.04
2018-01-07T05:01:50.967Z,57.05
2018-01-07T05:04:19.319Z,58.42
2018-01-07T05:06:47.673Z,58.45
2018-01-07T05:09:16.412Z,57.44
2018-01-07T05:11:44.795Z,60.53
2018-01-07T05:14:13.143Z,60.91
2018-01-07T05:16:41.528Z,59.44
2018-01-07T05:19:09.997Z,59.70
2018-01-07T05:21:38.343Z,60.33
2018-01-07T05:24:06.728Z,60.17
2018-01-07T05:26:35.063Z,60.46
2018-01-07T05:29:03.415Z,61.08
2018-01-07T05:31:31.811Z,58.13
2018-01-07T05:34:00.152Z,57.96
2018-01-07T05:36:29.587Z,61.72
2018-01-07T05:38:57.937Z,62.57
2018-01-07T05:41:26.692Z,61.95
2018-01-07T05:43:55.049Z,61.35
2018-01-07T05:46:23.429Z,63.03
2018-01-07T05:48:51.816Z,63.22
2018-01-07T05:51:20.160Z,62.06
2018-01-07T05:53:58.213Z,60.14
2018-01-07T06:02:22.534Z,62.55
2018-01-07T06:04:50.876Z,60.40
2018-01-07T06:07:19.221Z,60.03
2018-01-07T06:09:47.972Z,61.43
2018-01-07T06:12:16.324Z,61.54
2018-01-07T06:14:44.667Z,60.24
2018-01-07T06:17:13.426Z,60.23
2018-01-07T06:19:41.772Z,60.26
2018-01-07T06:22:10.156Z,62.87
2018-01-07T06:24:38.512Z,61.13
2018-01-07T06:27:06.869Z,60.89
2018-01-07T06:29:35.633Z,61.81
2018-01-07T06:32:04.005Z,59.59
2018-01-07T06:34:32.461Z,58.48
2018-01-07T06:37:00.828Z,60.09
2018-01-07T06:39:29.175Z,61.47
2018-01-07T06:41:57.929Z,60.22
2018-01-07T06:44:26.286Z,59.72
2018-01-07T06:46:54.884Z,59.35
2018-01-07T06:49:23.245Z,59.81
2018-01-07T06:51:51.624Z,59.53
2018-01-07T06:54:20.041Z,60.78
2018-01-07T06:56:48.485Z,60.03
2018-01-07T06:59:16.865Z,59.47
2018-01-07T07:01:45.229Z,59.74
2018-01-07T07:04:13.577Z,58.52
2018-01-07T07:06:42.348Z,60.57
2018-01-07T07:09:11.096Z,59.59
2018-01-07T07:11:39.462Z,59.01
2018-01-07T07:14:07.849Z,59.18
2018-01-07T07:16:36.293Z,60.29
2018-01-07T07:19:05.049Z,59.63
2018-01-07T07:21:33.504Z,59.22
2018-01-07T07:24:01.889Z,59.90
2018-01-07T07:26:30.257Z,58.99
2018-01-07T07:28:58.608Z,59.18
2018-01-07T07:31:27.026Z,59.63
2018-01-07T07:33:55.379Z,59.95
2018-01-07T07:36:23.780Z,59.24
2018-01-07T07:38:52.176Z,58.86
2018-01-07T07:41:20.541Z,59.38
2018-01-07T07:43:48.892Z,60.15
2018-01-07T07:46:17.277Z,57.61
2018-01-07T07:48:45.643Z,58.42
2018-01-07T07:51:14.021Z,58.11
2018-01-07T07:53:42.428Z,59.69
2018-01-07T07:56:10.909Z,58.75
2018-01-07T07:58:39.248Z,59.02
2018-01-07T08:01:07.668Z,58.68
2018-01-07T08:03:36.049Z,57.92
2018-01-07T08:06:04.420Z,56.94
2018-01-07T08:08:32.782Z,56.42
2018-01-07T08:11:01.151Z,58.07
2018-01-07T08:13:29.556Z,58.02
2018-01-07T08:15:57.908Z,59.19
2018-01-07T08:18:26.246Z,58.09
2018-01-07T08:20:54.610Z,57.94
2018-01-07T08:23:23.744Z,58.45
2018-01-07T08:25:52.492Z,57.93
2018-01-07T08:28:20.936Z,58.76
2018-01-07T08:30:49.303Z,57.94
2018-01-07T08:33:17.721Z,57.20
2018-01-07T08:35:46.071Z,57.56
2018-01-07T08:38:14.419Z,56.36
2018-01-07T08:40:44.112Z,56.37
2018-01-07T08:43:12.448Z,58.54
2018-01-07T08:45:40.883Z,56.65
2018-01-07T08:48:09.622Z,57.07
2018-01-07T08:50:37.980Z,57.57
2018-01-07T08:53:06.357Z,57.90
2018-01-07T08:55:34.712Z,57.83
2018-01-07T08:58:03.564Z,58.66
2018-01-07T09:00:31.926Z,56.83
2018-01-07T09:03:00.282Z,58.08
2018-01-07T09:05:28.663Z,58.50
2018-01-07T09:07:57.005Z,57.45
2018-01-07T09:10:25.441Z,57.30
2018-01-07T09:12:54.588Z,57.76
2018-01-07T09:15:23.436Z,56.23
2018-01-07T09:17:51.780Z,56.82
2018-01-07T09:20:20.191Z,57.18
2018-01-07T09:22:48.542Z,57.07
2018-01-07T09:25:16.899Z,57.85
2018-01-07T09:27:45.640Z,56.71
2018-01-07T09:30:14.000Z,55.76
2018-01-07T09:32:42.379Z,55.82
2018-01-07T09:35:10.777Z,54.17
2018-01-07T09:37:39.140Z,53.02
2018-01-07T09:40:07.499Z,54.90
2018-01-07T09:42:35.860Z,53.74
2018-01-07T09:45:04.596Z,54.45
2018-01-07T09:47:32.951Z,53.81
2018-01-07T09:50:01.318Z,53.96
2018-01-07T09:52:29.827Z,53.25
2018-01-07T09:54:58.171Z,51.45
2018-01-07T09:57:26.682Z,51.92
2018-01-07T09:59:55.039Z,51.44
2018-01-07T10:02:23.395Z,54.61
2018-01-07T10:04:51.737Z,54.85
2018-01-07T10:07:20.108Z,53.77
2018-01-07T10:09:48.460Z,52.43
2018-01-07T10:12:16.858Z,52.05
2018-01-07T10:14:45.217Z,52.64
2018-01-07T10:17:13.615Z,53.34
2018-01-07T10:19:41.991Z,53.07
2018-01-07T10:22:10.376Z,52.86
2018-01-07T10:24:38.713Z,52.87
2018-01-07T10:27:07.256Z,52.73
2018-01-07T10:29:35.608Z,51.84
2018-01-07T10:32:04.016Z,52.46
2018-01-07T10:34:32.397Z,51.42
2018-01-07T10:37:00.747Z,52.01
2018-01-07T10:39:29.095Z,54.22
2018-01-07T10:41:57.447Z,54.00
2018-01-07T10:44:25.811Z,53.67
2018-01-07T10:46:54.165Z,53.73
2018-01-07T10:49:22.540Z,52.67
2018-01-07T10:51:50.892Z,52.79
2018-01-07T10:54:20.036Z,52.63
2018-01-07T10:56:48.408Z,53.12
2018-01-07T10:59:16.803Z,52.69
2018-01-07T11:02:01.926Z,53.55
2018-01-07T11:04:30.332Z,54.24
2018-01-07T11:06:58.728Z,53.25
2018-01-07T11:09:27.092Z,51.73
2018-01-07T11:11:55.451Z,50.39
2018-01-07T11:14:23.856Z,50.09
2018-01-07T11:16:52.235Z,49.21
2018-01-07T11:19:20.598Z,48.24
2018-01-07T11:21:48.943Z,49.25
2018-01-07T11:24:17.279Z,50.10
2018-01-07T11:26:45.637Z,50.78
2018-01-07T11:29:13.973Z,50.29
2018-01-07T11:31:42.584Z,49.70
2018-01-07T11:34:10.966Z,48.99
2018-01-07T11:36:39.318Z,49.86
2018-01-07T11:39:07.739Z,50.19
2018-01-07T11:41:36.212Z,49.16
2018-01-07T11:44:04.559Z,49.71
2018-01-07T11:46:32.912Z,49.55
2018-01-07T11:49:01.652Z,48.01
2018-01-07T11:51:30.000Z,47.65
2018-01-07T11:53:58.349Z,49.23
2018-01-07T11:56:27.200Z,48.56
2018-01-07T11:58:55.562Z,48.61
2018-01-07T12:01:23.933Z,48.27
2018-01-07T12:03:52.344Z,49.36
2018-01-07T12:06:21.052Z,48.44
2018-01-07T12:08:49.570Z,49.33
2018-01-07T12:11:17.920Z,48.99
2018-01-07T12:13:47.083Z,48.88
2018-01-07T12:16:15.434Z,48.25
2018-01-07T12:18:43.771Z,49.52
2018-01-07T12:21:12.124Z,48.60
2018-01-07T12:23:40.506Z,49.83
2018-01-07T12:26:08.870Z,49.64
2018-01-07T12:28:37.220Z,50.46
2018-01-07T12:31:05.632Z,51.30
2018-01-07T12:33:34.004Z,50.59
2018-01-07T12:36:02.404Z,49.25
2018-01-07T12:38:30.755Z,49.90
2018-01-07T12:40:59.285Z,49.80
2018-01-07T12:44:28.679Z,50.10
2018-01-07T12:46:57.124Z,50.22
2018-01-07T12:49:25.468Z,51.05
2018-01-07T12:51:54.305Z,50.74
2018-01-07T12:54:22.679Z,50.52
2018-01-07T12:56:51.059Z,50.08
2018-01-07T12:59:19.420Z,49.53
2018-01-07T13:01:47.835Z,50.77
2018-01-07T13:04:16.178Z,52.96
2018-01-07T13:06:44.575Z,50.39
2018-01-07T13:09:12.924Z,50.26
2018-01-07T13:11:41.264Z,50.34
2018-01-07T13:14:09.615Z,52.01
2018-01-07T13:16:37.964Z,50.43
2018-01-07T13:19:06.377Z,50.18
2018-01-07T13:21:34.746Z,51.32
2018-01-07T13:24:03.088Z,52.56
2018-01-07T13:26:31.432Z,52.47
2018-01-07T13:28:59.891Z,51.01
2018-01-07T13:31:28.267Z,51.21
2018-01-07T13:33:56.616Z,51.93
2018-01-07T13:36:24.979Z,52.29
2018-01-07T13:38:53.804Z,52.04
2018-01-07T13:41:22.163Z,52.25
2018-01-07T13:43:50.523Z,52.75
2018-01-07T13:46:19.270Z,52.22
2018-01-07T13:48:47.608Z,53.46
2018-01-07T13:51:15.981Z,52.99
2018-01-07T13:53:44.344Z,51.77
2018-01-07T13:56:12.776Z,52.12
2018-01-07T13:58:41.789Z,50.98
2018-01-07T14:01:10.133Z,52.08
2018-01-07T14:03:38.621Z,51.54
2018-01-07T14:06:06.985Z,52.96
2018-01-07T14:08:35.346Z,52.04
2018-01-07T14:11:03.761Z,52.16
2018-01-07T14:13:32.122Z,53.66
2018-01-07T14:16:00.516Z,55.40
2018-01-07T14:18:28.862Z,54.47
2018-01-07T14:20:57.296Z,53.61
2018-01-07T14:23:25.653Z,54.15
2018-01-07T14:25:54.032Z,53.38
2018-01-07T14:28:22.522Z,54.37
2018-01-07T14:30:50.886Z,53.46
2018-01-07T14:33:19.378Z,55.35
2018-01-07T14:35:47.732Z,54.76
2018-01-07T14:38:16.087Z,54.15
2018-01-07T14:40:44.444Z,54.54
2018-01-07T14:43:13.177Z,55.77
2018-01-07T14:45:41.578Z,55.68
2018-01-07T14:48:09.959Z,56.85
2018-01-07T14:50:38.327Z,56.17
2018-01-07T14:53:06.692Z,56.19
2018-01-07T14:55:35.053Z,56.07
2018-01-07T14:58:03.414Z,54.83
2018-01-07T15:00:31.847Z,54.86
2018-01-07T15:03:00.208Z,54.60
2018-01-07T15:05:28.570Z,55.26
2018-01-07T15:07:56.914Z,55.59
2018-01-07T15:10:25.278Z,55.87
2018-01-07T15:12:53.639Z,54.57
2018-01-07T15:15:22.002Z,56.19
2018-01-07T15:17:50.398Z,56.08
2018-01-07T15:20:18.784Z,55.52
2018-01-07T15:22:47.159Z,56.56
2018-01-07T15:25:15.532Z,55.90
2018-01-07T15:27:43.912Z,55.14
2018-01-07T15:30:12.264Z,56.00
2018-01-07T15:32:40.611Z,56.14
2018-01-07T15:35:09.376Z,57.45
2018-01-07T15:37:37.734Z,57.17
2018-01-07T15:40:06.087Z,58.31
2018-01-07T15:42:35.191Z,57.92
2018-01-07T15:45:03.542Z,57.86
2018-01-07T15:47:31.897Z,56.61
2018-01-07T15:50:00.641Z,55.73
2018-01-07T15:52:29.002Z,56.15
2018-01-07T15:54:57.342Z,56.62
2018-01-07T15:57:26.089Z,56.00
2018-01-07T15:59:54.464Z,56.10
2018-01-07T16:02:22.822Z,58.01
2018-01-07T16:04:51.161Z,57.66
2018-01-07T16:07:19.908Z,57.06
2018-01-07T16:09:48.265Z,57.32
2018-01-07T16:12:16.631Z,57.42
2018-01-07T16:14:45.086Z,57.28
2018-01-07T16:17:13.950Z,58.99
2018-01-07T16:19:42.341Z,58.29
2018-01-07T16:22:10.909Z,59.00
2018-01-07T16:24:39.256Z,58.11
2018-01-07T16:27:07.615Z,58.65
2018-01-07T16:29:36.056Z,57.26
2018-01-07T16:32:04.411Z,57.49
2018-01-07T16:34:32.758Z,57.20
2018-01-07T16:37:01.171Z,57.99
2018-01-07T16:39:29.528Z,59.38
2018-01-07T16:41:57.892Z,58.41
2018-01-07T16:44:26.246Z,58.50
2018-01-07T16:46:54.601Z,58.93
2018-01-07T16:49:22.968Z,58.50
2018-01-07T16:51:51.344Z,59.15
2018-01-07T16:54:19.694Z,58.00
2018-01-07T16:56:48.073Z,58.42
2018-01-07T16:59:16.432Z,57.74
2018-01-07T17:01:45.271Z,59.65
2018-01-07T17:04:14.617Z,59.09
2018-01-07T17:06:43.372Z,59.60
2018-01-07T17:09:11.741Z,59.48
2018-01-07T17:11:40.096Z,59.47
2018-01-07T17:14:08.456Z,58.96
2018-01-07T17:16:36.811Z,59.53
2018-01-07T17:19:05.551Z,59.53
2018-01-07T17:21:33.931Z,59.34
2018-01-07T17:24:02.352Z,60.67
2018-01-07T17:26:30.719Z,59.02
2018-01-07T17:28:59.226Z,59.60
2018-01-07T17:31:28.187Z,58.83
2018-01-07T17:33:56.553Z,59.61
2018-01-07T17:36:25.907Z,58.76
2018-01-07T17:38:54.349Z,58.03
2018-01-07T17:41:22.704Z,58.57
2018-01-07T17:43:51.055Z,58.97
2018-01-07T17:46:19.431Z,58.14
2018-01-07T17:48:47.799Z,58.23
2018-01-07T17:51:16.651Z,58.00
2018-01-07T17:53:45.006Z,59.29
2018-01-07T17:56:13.389Z,59.76
2018-01-07T17:58:41.733Z,58.82
2018-01-07T18:01:10.119Z,58.73
2018-01-07T18:03:38.459Z,58.21
2018-01-07T18:06:06.904Z,60.01
2018-01-07T18:08:35.837Z,60.33
2018-01-07T18:11:04.597Z,60.49
2018-01-07T18:13:33.897Z,60.65
2018-01-07T18:16:02.305Z,59.77
2018-01-07T18:18:31.066Z,58.27
2018-01-07T18:20:59.441Z,60.07
2018-01-07T18:23:27.794Z,59.79
2018-01-07T18:25:56.213Z,59.06
2018-01-07T18:28:24.596Z,59.06
2018-01-07T18:30:52.953Z,61.02
2018-01-07T18:33:21.300Z,59.84
2018-01-07T18:35:49.664Z,60.17
2018-01-07T18:38:18.036Z,60.81
2018-01-07T18:40:46.867Z,60.09
2018-01-07T18:43:15.208Z,59.47
2018-01-07T18:45:43.988Z,59.22
2018-01-07T18:48:12.360Z,60.61
2018-01-07T18:50:41.213Z,60.12
2018-01-07T18:53:09.565Z,61.47
2018-01-07T18:55:37.930Z,60.22
2018-01-07T18:58:06.272Z,59.89
2018-01-07T19:00:34.646Z,60.31
2018-01-07T19:03:02.996Z,60.43
2018-01-07T19:05:31.352Z,60.58
2018-01-07T19:07:59.704Z,60.77
2018-01-07T19:10:28.447Z,61.13
2018-01-07T19:12:56.916Z,60.81
2018-01-07T19:15:25.308Z,59.61
2018-01-07T19:17:53.676Z,60.38
2018-01-07T19:20:22.045Z,60.87
2018-01-07T19:22:50.439Z,60.11
2018-01-07T19:25:18.807Z,59.91
2018-01-07T19:27:47.255Z,60.68
2018-01-07T19:30:15.633Z,60.08
2018-01-07T19:32:43.980Z,60.69
2018-01-07T19:35:12.358Z,59.73
2018-01-07T19:37:40.737Z,59.41
2018-01-07T19:40:09.092Z,59.82
2018-01-07T19:42:37.449Z,59.43
2018-01-07T19:45:05.827Z,60.46
2018-01-07T19:47:34.201Z,59.89
2018-01-07T19:50:02.578Z,59.60
2018-01-07T19:52:30.937Z,59.61
2018-01-07T19:54:59.668Z,60.39
2018-01-07T19:57:28.069Z,60.15
2018-01-07T19:59:56.412Z,60.49
2018-01-07T20:02:24.808Z,60.34
2018-01-07T20:04:53.164Z,59.44
2018-01-07T20:07:21.521Z,59.82
2018-01-07T20:09:49.888Z,59.10
2018-01-07T20:12:18.739Z,59.64
2018-01-07T20:14:47.082Z,59.03
2018-01-07T20:17:15.483Z,60.40
2018-01-07T20:19:43.898Z,61.26
2018-01-07T20:22:12.276Z,59.93
2018-01-07T20:24:40.640Z,60.78
2018-01-07T20:27:09.019Z,60.95
2018-01-07T20:29:37.380Z,60.12
2018-01-07T20:32:05.736Z,61.44
2018-01-07T20:34:34.097Z,61.06
2018-01-07T20:37:02.465Z,60.71
2018-01-07T20:39:31.220Z,60.10
2018-01-07T20:41:59.676Z,60.84
2018-01-07T20:44:28.028Z,61.06
2018-01-07T20:46:56.403Z,60.61
2018-01-07T20:49:24.815Z,61.30
2018-01-07T20:51:53.174Z,61.22
2018-01-07T20:54:21.532Z,61.61
2018-01-07T20:56:50.300Z,60.80
2018-01-07T20:59:19.152Z,60.96
2018-01-07T21:01:47.523Z,61.66
2018-01-07T21:04:15.880Z,61.56
2018-01-07T21:06:44.288Z,62.02
2018-01-07T21:09:12.882Z,62.23
2018-01-07T21:11:41.367Z,61.99
2018-01-07T21:14:09.706Z,61.65
2018-01-07T21:16:38.243Z,61.10
2018-01-07T21:19:06.837Z,59.82
2018-01-07T21:21:35.224Z,60.49
2018-01-07T21:24:03.636Z,63.22
2018-01-07T21:26:32.053Z,62.68
2018-01-07T21:29:00.427Z,62.05
2018-01-07T21:31:28.784Z,61.77
2018-01-07T21:33:57.141Z,61.80
2018-01-07T21:36:25.496Z,63.14
2018-01-07T21:38:54.244Z,63.11
2018-01-07T21:41:22.628Z,63.08
2018-01-07T21:43:51.028Z,61.59
2018-01-07T21:46:19.484Z,62.12
2018-01-07T21:48:47.832Z,63.09
2018-01-07T21:51:16.241Z,62.71
2018-01-07T21:53:44.616Z,62.68
2018-01-07T21:56:12.967Z,62.82
2018-01-07T21:58:41.560Z,62.34
2018-01-07T22:01:27.775Z,61.80
2018-01-07T22:03:59.917Z,63.51
2018-01-07T22:06:45.908Z,64.13
2018-01-07T22:09:14.316Z,62.98
2018-01-07T22:11:42.673Z,61.58
2018-01-07T22:14:11.040Z,63.23
2018-01-07T22:16:39.400Z,62.90
2018-01-07T22:19:08.245Z,62.74
2018-01-07T22:21:36.594Z,62.22
2018-01-07T22:24:04.956Z,62.77
2018-01-07T22:26:33.327Z,62.39
2018-01-07T22:29:01.675Z,61.78
2018-01-07T22:31:30.123Z,62.17
2018-01-07T22:33:58.475Z,62.60
2018-01-07T22:36:26.903Z,62.80
2018-01-07T22:38:55.478Z,61.79
2018-01-07T22:41:23.842Z,61.28
2018-01-07T22:43:52.186Z,62.84
2018-01-07T22:46:20.548Z,63.75
2018-01-07T22:48:49.417Z,63.97
2018-01-07T22:51:17.775Z,64.03
2018-01-07T22:53:46.135Z,64.49
2018-01-07T22:56:14.550Z,63.97
2018-01-07T22:58:42.908Z,62.29
2018-01-07T23:01:11.292Z,62.12
2018-01-07T23:03:39.746Z,62.93
2018-01-07T23:06:08.118Z,62.76
2018-01-07T23:08:36.460Z,63.11
2018-01-07T23:11:04.816Z,63.25
2018-01-07T23:13:33.195Z,63.72
2018-01-07T23:16:01.571Z,63.26
2018-01-07T23:18:29.907Z,62.13
2018-01-07T23:20:58.425Z,62.90
2018-01-07T23:23:26.776Z,62.14
2018-01-07T23:25:55.140Z,61.06
2018-01-07T23:28:23.504Z,61.54
2018-01-07T23:30:51.927Z,62.45
2018-01-07T23:33:20.281Z,64.07
2018-01-07T23:35:48.655Z,64.69
2018-01-07T23:38:17.005Z,62.96
2018-01-07T23:40:45.363Z,62.47
2018-01-07T23:43:13.718Z,63.10
2018-01-07T23:45:42.119Z,63.75
2018-01-07T23:48:10.485Z,62.83
2018-01-07T23:50:38.872Z,63.62
2018-01-07T23:53:07.231Z,63.01
2018-01-07T23:55:35.623Z,63.29
2018-01-07T23:58:03.964Z,62.26
